Time;durP1;ratioP1;P1;durP2;ratioP2;P2;SDS_P1;SDS_P2;PMS_P1;PMS_P2;Temp;Humidity;BMP_temperature;BMP_pressure;BME280_temperature;BME280_humidity;BME280_pressure;Samples;Min_cycle;Max_cycle;Signal;HPM_P1;HPM_P2
2022/05/26 04:00:46;;;;;;;9.60;5.50;;;14.10;99.90;;;;;;5732682;23;20499;-69
2022/05/26 04:03:13;;;;;;;5.57;5.13;;;14.10;99.90;;;;;;4954294;28;20902;-68
2022/05/26 04:05:40;;;;;;;6.00;5.50;;;14.10;99.90;;;;;;4953876;28;20576;-69
2022/05/26 04:08:07;;;;;;;6.47;5.97;;;14.10;99.90;;;;;;4967119;28;20512;-68
2022/05/26 04:10:34;;;;;;;6.07;5.47;;;14.10;99.90;;;;;;4949698;28;20489;-69
2022/05/26 04:13:01;;;;;;;5.73;5.23;;;14.10;99.90;;;;;;4939596;29;20519;-70
2022/05/26 04:15:28;;;;;;;6.00;5.47;;;14.20;99.90;;;;;;4945020;29;21002;-69
2022/05/26 04:17:56;;;;;;;6.10;5.73;;;14.20;99.90;;;;;;4941320;29;20950;-69
2022/05/26 04:20:23;;;;;;;5.23;4.90;;;14.20;99.90;;;;;;4937612;29;20473;-70
2022/05/26 04:22:50;;;;;;;6.60;6.07;;;14.20;99.90;;;;;;4941951;28;20493;-68
2022/05/26 04:25:18;;;;;;;5.17;4.80;;;14.20;99.90;;;;;;4939290;29;20949;-68
2022/05/26 04:27:45;;;;;;;6.43;5.80;;;14.20;99.90;;;;;;4938079;29;20464;-74
2022/05/26 04:30:12;;;;;;;5.83;5.47;;;14.30;99.90;;;;;;4933433;29;20469;-68
2022/05/26 04:32:40;;;;;;;5.70;5.40;;;14.30;99.90;;;;;;4941294;29;20469;-69
2022/05/26 04:35:10;;;;;;;5.73;5.40;;;14.30;99.90;;;;;;4937796;29;20468;-69
2022/05/26 04:37:37;;;;;;;6.87;6.27;;;14.30;99.90;;;;;;4936017;28;20485;-70
2022/05/26 04:40:06;;;;;;;5.67;5.23;;;14.30;99.90;;;;;;4936998;29;20475;-69
2022/05/26 04:42:33;;;;;;;6.40;5.90;;;14.40;99.90;;;;;;4957275;28;20495;-68
2022/05/26 04:45:00;;;;;;;6.57;5.93;;;14.50;99.90;;;;;;4941760;28;20532;-69
2022/05/26 04:47:27;;;;;;;6.20;5.60;;;14.50;99.90;;;;;;4937260;29;20473;-69
2022/05/26 04:49:53;;;;;;;6.13;5.67;;;14.50;99.90;;;;;;4936019;29;20528;-69
2022/05/26 04:52:23;;;;;;;8.83;5.70;;;14.50;99.90;;;;;;4937514;29;20537;-69
2022/05/26 04:54:52;;;;;;;10.13;6.53;;;14.50;99.90;;;;;;4937032;29;20469;-70
2022/05/26 04:57:20;;;;;;;5.93;5.50;;;14.50;99.90;;;;;;4933828;28;20490;-70
2022/05/26 04:59:46;;;;;;;6.13;5.63;;;14.70;99.90;;;;;;4943503;28;20884;-69
2022/05/26 05:02:15;;;;;;;5.27;4.97;;;15.10;99.90;;;;;;4936251;28;20887;-71
2022/05/26 05:04:44;;;;;;;5.07;4.67;;;15.50;99.90;;;;;;4923652;29;20481;-69
2022/05/26 05:07:11;;;;;;;4.70;4.40;;;16.00;99.90;;;;;;4931988;29;20470;-69
2022/05/26 05:09:40;;;;;;;5.00;4.70;;;16.50;99.90;;;;;;4926004;29;20516;-71
2022/05/26 05:12:08;;;;;;;6.17;5.70;;;16.90;99.90;;;;;;4941143;29;20485;-69
2022/05/26 05:14:40;;;;;;;4.27;3.97;;;17.30;99.90;;;;;;4935444;29;20477;-69
2022/05/26 05:17:07;;;;;;;4.50;4.30;;;17.60;99.90;;;;;;4940134;28;20544;-72
2022/05/26 05:19:33;;;;;;;3.53;3.30;;;18.00;99.90;;;;;;4922619;29;20592;-70
2022/05/26 05:22:05;;;;;;;4.50;4.30;;;18.20;99.90;;;;;;4944293;28;20512;-71
2022/05/26 05:24:35;;;;;;;3.80;3.60;;;18.10;99.90;;;;;;4920144;29;20532;-70
2022/05/26 05:27:13;;;;;;;3.30;3.20;;;18.30;99.90;;;;;;4940926;29;20461;-69
2022/05/26 05:29:42;;;;;;;3.33;3.10;;;18.80;99.90;;;;;;4945932;28;20881;-72
2022/05/26 05:32:14;;;;;;;4.60;3.83;;;19.00;99.90;;;;;;4938324;28;20517;-69
2022/05/26 05:34:44;;;;;;;3.20;3.00;;;18.60;99.90;;;;;;4934766;29;20480;-69
2022/05/26 05:37:11;;;;;;;4.23;3.97;;;18.50;99.90;;;;;;4939695;28;20513;-69
2022/05/26 05:39:38;;;;;;;3.60;3.50;;;18.10;99.90;;;;;;4934040;29;20481;-71
2022/05/26 05:42:08;;;;;;;3.97;3.90;;;17.70;99.90;;;;;;4941567;28;20872;-69
2022/05/26 05:44:35;;;;;;;4.10;3.80;;;17.50;99.90;;;;;;4934741;29;20525;-69
2022/05/26 05:47:02;;;;;;;4.37;4.17;;;17.70;99.90;;;;;;4942569;28;20801;-73
2022/05/26 05:49:30;;;;;;;6.33;4.17;;;17.50;99.90;;;;;;4931672;29;20473;-73
2022/05/26 05:52:04;;;;;;;4.40;4.20;;;17.20;99.90;;;;;;4940008;29;20482;-69
2022/05/26 05:54:32;;;;;;;4.67;4.07;;;17.30;99.90;;;;;;4925069;29;20533;-68
2022/05/26 05:56:59;;;;;;;3.73;3.60;;;18.00;99.90;;;;;;4940341;28;21073;-68
2022/05/26 05:59:27;;;;;;;4.23;3.93;;;18.10;99.90;;;;;;4938992;28;20466;-69
2022/05/26 06:01:55;;;;;;;4.50;4.20;;;18.00;99.90;;;;;;4935387;28;20505;-68
2022/05/26 06:04:22;;;;;;;4.10;3.70;;;18.30;99.90;;;;;;4931709;29;20465;-69
2022/05/26 06:06:50;;;;;;;4.40;4.20;;;18.90;99.90;;;;;;4938508;29;20461;-72
2022/05/26 06:09:17;;;;;;;4.13;3.73;;;19.50;99.90;;;;;;4924196;29;20485;-75
2022/05/26 06:11:45;;;;;;;3.73;3.50;;;19.40;99.90;;;;;;4940310;29;20541;-68
2022/05/26 06:14:12;;;;;;;4.27;4.07;;;19.40;99.90;;;;;;4940822;29;20467;-71
2022/05/26 06:16:40;;;;;;;3.87;3.77;;;19.50;99.90;;;;;;4941985;28;20486;-69
2022/05/26 06:19:07;;;;;;;3.87;3.57;;;19.20;99.90;;;;;;4939789;29;21045;-69
2022/05/26 06:21:37;;;;;;;4.07;3.90;;;18.80;99.90;;;;;;4946223;28;20489;-70
2022/05/26 06:24:04;;;;;;;3.80;3.60;;;18.70;99.90;;;;;;4939486;29;20521;-70
2022/05/26 06:26:31;;;;;;;5.83;4.23;;;18.60;99.90;;;;;;4937178;29;20525;-74
2022/05/26 06:37:13;;;;;;;4.43;4.00;;;18.70;99.90;;;;;;4935120;29;20557;-68
2022/05/26 06:37:14;;;;;;;5.80;5.30;;;19.00;99.90;;;;;;4945073;29;20508;-69
2022/05/26 06:39:41;;;;;;;3.73;3.53;;;18.90;99.90;;;;;;4944032;28;20535;-69
2022/05/26 06:42:10;;;;;;;4.53;4.20;;;19.30;99.90;;;;;;4944184;28;20485;-71
2022/05/26 06:44:38;;;;;;;3.87;3.57;;;19.40;99.90;;;;;;4941162;29;20483;-69
2022/05/26 06:47:08;;;;;;;3.50;3.30;;;19.60;99.90;;;;;;4926789;29;20471;-71
2022/05/26 06:49:35;;;;;;;4.23;3.93;;;20.30;99.90;;;;;;4943615;29;20462;-73
2022/05/26 06:52:03;;;;;;;4.83;4.27;;;20.90;99.90;;;;;;4938061;29;20504;-74
2022/05/26 06:54:34;;;;;;;3.17;3.07;;;20.70;99.90;;;;;;4948753;29;20460;-72
2022/05/26 06:57:01;;;;;;;3.40;3.23;;;20.50;99.90;;;;;;4947753;29;20489;-69
2022/05/26 06:59:28;;;;;;;3.20;3.00;;;20.60;99.90;;;;;;4954853;28;20515;-68
2022/05/26 07:01:55;;;;;;;5.07;4.67;;;20.40;99.90;;;;;;4939976;29;20893;-70
2022/05/26 07:04:23;;;;;;;3.30;3.10;;;20.00;99.90;;;;;;4940546;28;20522;-68
2022/05/26 07:06:52;;;;;;;4.40;3.90;;;19.40;99.90;;;;;;4944509;29;20457;-72
2022/05/26 07:09:20;;;;;;;3.47;3.33;;;18.90;99.90;;;;;;4955659;28;20471;-69
2022/05/26 07:11:47;;;;;;;3.97;3.67;;;18.60;99.90;;;;;;4919441;28;20482;-69
2022/05/26 07:14:14;;;;;;;3.50;3.30;;;18.50;99.90;;;;;;4937004;29;20544;-67
2022/05/26 07:16:41;;;;;;;3.57;3.37;;;18.40;99.90;;;;;;4932651;28;20472;-69
2022/05/26 07:19:09;;;;;;;3.30;3.00;;;18.40;99.90;;;;;;4938087;29;20508;-67
2022/05/26 07:21:37;;;;;;;3.87;3.60;;;18.20;99.90;;;;;;4942250;28;20489;-68
2022/05/26 07:24:04;;;;;;;3.20;3.03;;;18.00;99.90;;;;;;4936728;29;20469;-69
2022/05/26 07:26:32;;;;;;;4.00;3.70;;;18.00;99.90;;;;;;4929885;29;20490;-70
2022/05/26 07:28:59;;;;;;;4.83;4.30;;;17.90;99.90;;;;;;4931752;29;20459;-68
2022/05/26 07:31:26;;;;;;;5.10;4.70;;;18.00;99.90;;;;;;4930347;29;20534;-69
2022/05/26 07:33:53;;;;;;;3.90;3.60;;;18.20;99.90;;;;;;4931972;29;20464;-72
2022/05/26 07:42:00;;;;;;;6.60;2.47;;;19.80;99.90;;;;;;4941430;29;20476;-69
2022/05/26 07:44:28;;;;;;;2.67;2.47;;;20.40;99.90;;;;;;4947753;29;20463;-69
2022/05/26 07:46:55;;;;;;;2.40;2.30;;;21.10;99.90;;;;;;4929465;29;20480;-70
2022/05/26 07:49:22;;;;;;;1.73;1.70;;;21.60;99.90;;;;;;4934993;29;20981;-69
2022/05/26 07:51:48;;;;;;;2.33;2.23;;;21.80;99.90;;;;;;4939151;28;20476;-69
2022/05/26 07:54:16;;;;;;;2.40;1.67;;;21.90;99.90;;;;;;4943223;28;20527;-68
2022/05/26 07:56:43;;;;;;;1.67;1.60;;;21.90;99.90;;;;;;4930533;29;20927;-68
2022/05/26 07:59:10;;;;;;;2.70;2.40;;;21.70;99.90;;;;;;4940519;29;20460;-70
2022/05/26 08:01:37;;;;;;;2.30;1.57;;;21.60;99.90;;;;;;4939939;28;20580;-69
2022/05/26 08:04:05;;;;;;;1.60;1.40;;;22.20;99.90;;;;;;4938915;29;20480;-68
2022/05/26 08:06:32;;;;;;;2.67;1.67;;;22.30;99.90;;;;;;4940476;29;20967;-68
2022/05/26 08:08:59;;;;;;;1.53;1.43;;;22.00;99.90;;;;;;4940048;28;20550;-69
2022/05/26 08:11:27;;;;;;;1.40;1.40;;;21.50;99.90;;;;;;4938415;29;20482;-72
2022/05/26 08:13:54;;;;;;;2.00;1.17;;;21.90;99.90;;;;;;4946140;28;20466;-69
2022/05/26 08:16:20;;;;;;;2.03;1.20;;;22.20;99.90;;;;;;4938369;29;20847;-69
2022/05/26 08:18:47;;;;;;;1.20;1.20;;;21.90;99.90;;;;;;4934023;29;20493;-69
2022/05/26 08:21:18;;;;;;;1.50;1.40;;;22.00;99.10;;;;;;4935959;29;21052;-69
2022/05/26 08:23:45;;;;;;;1.03;1.03;;;21.90;98.90;;;;;;4942980;28;20466;-69
2022/05/26 08:26:12;;;;;;;1.33;1.13;;;21.70;98.80;;;;;;4940908;29;20474;-69
2022/05/26 08:28:41;;;;;;;1.67;1.57;;;21.50;99.00;;;;;;4931168;29;20913;-70
2022/05/26 08:31:10;;;;;;;1.50;1.40;;;21.10;99.00;;;;;;4932113;29;21006;-71
2022/05/26 08:33:37;;;;;;;1.70;1.60;;;20.70;99.50;;;;;;4942191;29;20475;-73
2022/05/26 08:36:06;;;;;;;1.63;1.40;;;20.20;99.90;;;;;;4937606;29;20477;-69
2022/05/26 08:38:34;;;;;;;1.70;1.60;;;19.90;99.90;;;;;;4935480;29;20900;-69
2022/05/26 08:41:01;;;;;;;1.70;1.60;;;19.80;99.90;;;;;;4941215;28;20901;-71
2022/05/26 08:43:34;;;;;;;1.87;1.40;;;19.70;99.90;;;;;;4939798;29;20479;-71
2022/05/26 08:46:07;;;;;;;1.40;1.20;;;19.90;99.90;;;;;;4940115;29;20545;-73
2022/05/26 08:48:42;;;;;;;1.77;1.40;;;20.00;99.90;;;;;;4938250;29;20988;-71
2022/05/26 08:51:12;;;;;;;2.33;1.13;;;20.20;99.90;;;;;;4931094;28;20494;-72
2022/05/26 08:53:42;;;;;;;1.60;1.37;;;20.20;99.90;;;;;;4935545;29;20472;-69
2022/05/26 08:56:11;;;;;;;1.30;1.30;;;20.20;99.30;;;;;;4937021;28;20521;-68
2022/05/26 08:58:44;;;;;;;2.67;1.70;;;20.10;99.90;;;;;;4930313;29;20576;-69
2022/05/26 09:01:16;;;;;;;1.30;1.30;;;20.20;99.90;;;;;;4931202;29;20498;-70
2022/05/26 09:03:44;;;;;;;1.53;1.40;;;20.20;99.90;;;;;;4931068;29;20565;-69
2022/05/26 09:06:13;;;;;;;2.30;1.30;;;19.90;99.90;;;;;;4940554;29;20466;-69
2022/05/26 09:14:23;;;;;;;3.43;1.20;;;19.80;99.90;;;;;;4941839;29;20906;-69
2022/05/26 09:16:57;;;;;;;2.20;1.63;;;19.70;99.90;;;;;;4933508;29;20469;-70
2022/05/26 09:19:24;;;;;;;4.37;1.20;;;19.60;99.90;;;;;;4941312;28;20492;-70
2022/05/26 09:21:52;;;;;;;1.17;1.17;;;19.40;99.90;;;;;;4937566;28;20493;-69
2022/05/26 09:24:25;;;;;;;1.23;0.90;;;19.30;99.90;;;;;;4940572;29;20907;-69
2022/05/26 09:26:57;;;;;;;3.53;1.10;;;19.20;99.90;;;;;;4925425;29;20473;-68
2022/05/26 09:29:26;;;;;;;2.00;1.30;;;19.10;99.90;;;;;;4941967;29;20469;-68
2022/05/26 09:31:55;;;;;;;1.47;1.30;;;18.90;99.90;;;;;;4943044;28;20583;-67
2022/05/26 09:34:24;;;;;;;4.53;1.30;;;18.90;99.90;;;;;;4944471;29;20817;-70
2022/05/26 09:36:53;;;;;;;3.33;1.60;;;19.00;99.90;;;;;;4949880;28;20523;-70
2022/05/26 09:39:22;;;;;;;0.67;0.60;;;18.90;99.80;;;;;;4943701;28;20560;-70
2022/05/26 09:41:51;;;;;;;1.27;0.90;;;18.90;99.70;;;;;;4931160;29;20497;-70
2022/05/26 09:44:50;;;;;;;2.93;1.00;;;18.80;98.80;;;;;;4933203;29;20561;-69
2022/05/26 09:47:27;;;;;;;1.40;1.30;;;18.80;99.90;;;;;;4929611;29;20491;-69
2022/05/26 09:49:56;;;;;;;0.77;0.77;;;18.90;99.60;;;;;;4930780;29;20512;-69
2022/05/26 09:52:28;;;;;;;1.10;0.93;;;19.00;99.90;;;;;;4934132;29;20485;-69
2022/05/26 09:55:09;;;;;;;0.80;0.80;;;19.10;99.40;;;;;;4944519;28;20474;-70
2022/05/26 09:57:36;;;;;;;1.00;1.00;;;19.20;99.00;;;;;;4933511;29;20477;-68
2022/05/26 10:00:13;;;;;;;1.23;0.83;;;19.20;99.10;;;;;;4935658;29;20985;-71
2022/05/26 10:02:42;;;;;;;1.40;0.80;;;19.10;99.80;;;;;;4942549;29;20499;-68
2022/05/26 10:05:15;;;;;;;1.90;0.90;;;19.10;99.30;;;;;;4940457;29;20466;-68
2022/05/26 10:07:54;;;;;;;1.50;0.70;;;19.00;99.60;;;;;;4943333;29;20476;-70
2022/05/26 10:10:27;;;;;;;0.70;0.60;;;19.00;98.40;;;;;;4940218;28;20559;-69
2022/05/26 10:13:08;;;;;;;2.03;1.13;;;19.00;98.70;;;;;;4932135;29;20481;-68
2022/05/26 10:15:45;;;;;;;0.97;0.50;;;19.10;98.40;;;;;;4928278;29;20917;-69
2022/05/26 10:18:37;;;;;;;1.13;0.53;;;19.10;98.30;;;;;;4927740;29;20552;-69
2022/05/26 10:21:09;;;;;;;1.80;0.87;;;19.20;98.80;;;;;;4933854;29;20539;-68
2022/05/26 10:23:51;;;;;;;2.83;1.07;;;19.30;99.50;;;;;;4934691;28;20882;-68
2022/05/26 10:26:27;;;;;;;1.90;0.60;;;19.30;99.70;;;;;;4956937;23;20481;-75
2022/05/26 10:29:19;;;;;;;1.60;0.80;;;19.30;99.30;;;;;;4930009;29;20536;-75
2022/05/26 10:32:04;;;;;;;1.63;0.90;;;19.30;99.50;;;;;;4931222;29;20480;-74
2022/05/26 10:34:48;;;;;;;1.33;0.70;;;19.30;99.90;;;;;;4931131;29;20492;-75
2022/05/26 10:37:25;;;;;;;1.60;0.50;;;19.30;99.50;;;;;;4933565;29;20481;-75
2022/05/26 10:40:08;;;;;;;1.70;0.90;;;19.20;99.70;;;;;;4935466;29;20484;-75
2022/05/26 10:42:38;;;;;;;2.23;0.63;;;19.40;99.90;;;;;;4941702;29;20581;-76
2022/05/26 10:45:12;;;;;;;5.43;1.20;;;19.60;99.90;;;;;;4941158;29;20465;-75
2022/05/26 10:47:43;;;;;;;0.60;0.60;;;19.70;99.80;;;;;;4935410;29;20496;-73
2022/05/26 10:50:19;;;;;;;1.47;0.80;;;19.80;98.90;;;;;;4935820;29;20536;-72
2022/05/26 10:52:51;;;;;;;0.60;0.60;;;20.00;99.90;;;;;;4937640;29;20513;-72
2022/05/26 10:55:22;;;;;;;0.97;0.97;;;20.10;99.40;;;;;;4936694;29;20474;-72
2022/05/26 10:57:56;;;;;;;0.97;0.97;;;20.00;99.40;;;;;;4937351;29;20988;-72
2022/05/26 11:00:26;;;;;;;1.10;1.07;;;20.00;99.30;;;;;;4942848;28;20468;-72
2022/05/26 11:02:59;;;;;;;3.50;0.80;;;20.10;99.60;;;;;;4946628;28;20461;-71
2022/05/26 11:05:35;;;;;;;0.97;0.87;;;20.20;99.30;;;;;;4928928;29;20964;-72
2022/05/26 11:08:16;;;;;;;1.50;0.97;;;20.30;99.20;;;;;;4947697;29;20519;-71
2022/05/26 11:10:47;;;;;;;0.80;0.80;;;20.20;99.10;;;;;;4949512;28;20500;-71
2022/05/26 11:13:18;;;;;;;2.77;1.10;;;20.00;99.30;;;;;;4948775;29;20472;-71
2022/05/26 11:18:40;;;;;;;0.70;0.70;;;20.00;99.90;;;;;;4946184;29;20473;-73
2022/05/26 11:21:13;;;;;;;1.40;0.83;;;20.00;99.80;;;;;;4933931;28;20478;-73
2022/05/26 11:23:41;;;;;;;1.53;1.20;;;19.80;99.90;;;;;;4944667;29;20517;-71
2022/05/26 11:26:18;;;;;;;2.20;1.40;;;19.60;99.90;;;;;;4932625;29;20489;-71
2022/05/26 11:28:50;;;;;;;0.77;0.70;;;19.60;99.90;;;;;;4938117;29;20539;-70
2022/05/26 11:37:03;;;;;;;1.10;1.00;;;19.30;99.90;;;;;;4938873;29;20511;-72
2022/05/26 11:39:36;;;;;;;2.97;1.33;;;19.20;99.90;;;;;;4942622;28;20838;-71
2022/05/26 11:42:05;;;;;;;2.23;1.37;;;19.30;99.90;;;;;;4940482;29;20880;-70
2022/05/26 11:44:41;;;;;;;1.10;1.03;;;19.30;99.90;;;;;;4942139;29;20472;-73
2022/05/26 11:47:30;;;;;;;0.93;0.90;;;19.40;99.90;;;;;;4936846;29;20485;-72
2022/05/26 11:50:44;;;;;;;5.50;1.00;;;19.40;99.90;;;;;;4925309;29;20472;-72
2022/05/26 11:53:34;;;;;;;2.33;1.40;;;19.40;99.90;;;;;;4930811;29;20536;-70
2022/05/26 11:56:04;;;;;;;0.87;0.87;;;19.50;99.90;;;;;;4939423;29;20957;-71
2022/05/26 11:58:36;;;;;;;1.13;1.13;;;19.50;99.90;;;;;;4930256;29;20485;-71
2022/05/26 12:01:32;;;;;;;1.60;1.30;;;19.60;99.90;;;;;;4926218;29;20822;-71
2022/05/26 12:04:26;;;;;;;1.00;1.00;;;19.70;99.90;;;;;;4926408;29;20612;-71
2022/05/26 12:06:57;;;;;;;1.13;0.83;;;19.80;99.90;;;;;;4936128;29;20567;-71
2022/05/26 12:09:34;;;;;;;1.00;0.90;;;19.70;99.90;;;;;;4935396;29;20548;-71
2022/05/26 12:12:03;;;;;;;0.80;0.80;;;19.70;99.90;;;;;;4940260;29;20466;-71
2022/05/26 12:14:33;;;;;;;0.90;0.90;;;19.70;99.90;;;;;;4946245;29;20468;-72
2022/05/26 12:17:36;;;;;;;2.73;0.83;;;19.70;99.90;;;;;;4935115;29;20477;-73
2022/05/26 12:20:26;;;;;;;1.00;1.00;;;19.90;99.90;;;;;;4931875;29;20823;-72
2022/05/26 12:23:15;;;;;;;1.40;1.10;;;20.20;99.90;;;;;;4934145;29;20468;-72
2022/05/26 12:25:46;;;;;;;1.80;0.87;;;20.50;99.90;;;;;;4943079;29;20461;-71
2022/05/26 12:28:31;;;;;;;2.60;0.73;;;20.70;99.90;;;;;;4954008;28;20598;-72
2022/05/26 12:31:08;;;;;;;2.67;1.10;;;20.80;99.30;;;;;;4946251;28;20469;-71
2022/05/26 12:34:11;;;;;;;0.83;0.77;;;20.50;99.20;;;;;;4934298;29;20573;-71
2022/05/26 12:36:51;;;;;;;0.53;0.53;;;20.10;99.10;;;;;;4921557;29;20484;-71
2022/05/26 12:39:30;;;;;;;0.90;0.90;;;19.90;99.50;;;;;;4934429;29;20489;-71
2022/05/26 12:42:05;;;;;;;1.03;0.50;;;19.70;99.80;;;;;;4934852;29;20543;-71
2022/05/26 12:45:06;;;;;;;1.13;1.10;;;19.60;99.90;;;;;;4934893;29;20516;-71
2022/05/26 12:47:46;;;;;;;1.93;1.00;;;19.50;99.90;;;;;;4929751;29;20549;-71
2022/05/26 12:50:18;;;;;;;2.53;0.80;;;19.50;99.90;;;;;;4931000;29;20458;-71
2022/05/26 12:52:57;;;;;;;0.57;0.57;;;19.50;99.90;;;;;;4929495;29;20465;-71
2022/05/26 12:55:27;;;;;;;1.27;0.90;;;19.60;99.90;;;;;;4947222;29;20559;-71
2022/05/26 12:58:02;;;;;;;1.47;0.77;;;19.60;99.90;;;;;;4932174;28;20573;-72
2022/05/26 13:00:32;;;;;;;1.80;1.10;;;19.90;99.90;;;;;;4942680;29;20540;-72
2022/05/26 13:03:02;;;;;;;1.23;0.60;;;20.20;99.90;;;;;;4942957;28;21029;-71
2022/05/26 13:05:32;;;;;;;0.93;0.70;;;20.30;99.90;;;;;;4945034;29;20465;-71
2022/05/26 13:08:00;;;;;;;1.10;0.77;;;20.60;99.90;;;;;;4943774;28;20500;-71
2022/05/26 13:10:32;;;;;;;1.53;1.00;;;20.80;99.90;;;;;;4942903;29;20497;-71
2022/05/26 13:13:01;;;;;;;2.00;1.47;;;20.90;99.90;;;;;;4947551;28;20966;-70
2022/05/26 13:15:29;;;;;;;2.73;0.70;;;20.90;99.90;;;;;;4941686;29;20543;-72
2022/05/26 13:17:57;;;;;;;0.80;0.70;;;20.80;99.90;;;;;;4936132;29;20497;-72
2022/05/26 13:20:30;;;;;;;1.70;0.80;;;20.70;99.90;;;;;;4936332;29;20525;-71
2022/05/26 13:22:57;;;;;;;1.63;0.60;;;20.30;99.90;;;;;;4927794;29;20569;-72
2022/05/26 13:25:28;;;;;;;0.97;0.60;;;20.10;99.90;;;;;;4929554;29;20958;-72
2022/05/26 13:27:58;;;;;;;1.93;1.03;;;19.80;99.90;;;;;;4926576;29;20498;-72
2022/05/26 13:33:21;;;;;;;4.00;0.70;;;19.30;99.90;;;;;;4931036;29;20460;-72
2022/05/26 13:35:53;;;;;;;1.13;0.60;;;19.60;99.90;;;;;;4927985;29;20464;-72
2022/05/26 13:38:29;;;;;;;2.73;0.70;;;19.80;99.90;;;;;;4937359;29;20548;-72
2022/05/26 13:40:56;;;;;;;0.80;0.80;;;19.90;99.90;;;;;;4932945;29;20476;-72
2022/05/26 13:43:23;;;;;;;0.70;0.70;;;19.90;99.90;;;;;;4938565;29;20611;-72
2022/05/26 13:45:52;;;;;;;1.27;0.70;;;19.80;99.90;;;;;;4945798;28;20477;-72
2022/05/26 13:48:33;;;;;;;1.50;1.00;;;19.70;99.90;;;;;;4936036;28;20810;-73
2022/05/26 13:51:08;;;;;;;0.70;0.70;;;19.60;99.90;;;;;;4934139;29;20524;-72
2022/05/26 13:53:40;;;;;;;1.00;0.80;;;19.40;99.90;;;;;;4935498;28;20966;-72
2022/05/26 13:56:08;;;;;;;0.63;0.50;;;19.20;99.90;;;;;;4939417;28;20472;-73
2022/05/26 13:58:38;;;;;;;1.23;0.80;;;19.10;99.90;;;;;;4933837;28;20477;-72
2022/05/26 14:01:07;;;;;;;3.37;1.17;;;19.00;99.90;;;;;;4933375;29;20470;-72
2022/05/26 14:03:37;;;;;;;0.87;0.70;;;19.10;99.90;;;;;;4931859;29;20527;-72
2022/05/26 14:06:06;;;;;;;1.63;0.80;;;19.20;99.90;;;;;;4942732;28;20537;-72
2022/05/26 14:08:34;;;;;;;0.67;0.67;;;19.30;99.90;;;;;;4937425;29;20469;-73
2022/05/26 14:11:00;;;;;;;4.23;0.83;;;19.30;99.90;;;;;;4929963;29;20469;-70
2022/05/26 14:13:36;;;;;;;5.03;0.93;;;19.20;99.90;;;;;;4939945;29;20465;-71
2022/05/26 14:16:22;;;;;;;0.70;0.70;;;19.20;99.90;;;;;;4941180;29;20465;-71
2022/05/26 14:18:52;;;;;;;0.50;0.50;;;19.10;99.90;;;;;;4932616;29;20476;-70
2022/05/26 14:21:27;;;;;;;3.13;0.90;;;19.10;99.90;;;;;;4940748;29;20989;-72
2022/05/26 14:23:58;;;;;;;3.30;0.87;;;19.30;99.90;;;;;;4938604;29;20551;-73
2022/05/26 14:26:39;;;;;;;1.20;0.97;;;19.30;99.90;;;;;;4939246;28;20497;-72
2022/05/26 14:29:26;;;;;;;2.23;0.93;;;19.30;99.90;;;;;;4932344;28;20806;-72
2022/05/26 14:32:08;;;;;;;0.97;0.80;;;19.40;99.90;;;;;;4942329;29;20549;-71
2022/05/26 14:34:38;;;;;;;1.83;0.63;;;19.30;99.90;;;;;;4936813;29;20469;-71
2022/05/26 14:37:06;;;;;;;1.43;0.70;;;19.30;99.90;;;;;;4936734;29;20520;-72
2022/05/26 14:39:33;;;;;;;0.57;0.57;;;19.20;99.90;;;;;;4934404;29;20562;-71
2022/05/26 14:42:00;;;;;;;0.70;0.70;;;19.20;99.90;;;;;;4944749;29;20466;-72
2022/05/26 14:44:27;;;;;;;3.10;0.90;;;19.00;99.90;;;;;;4943618;29;20508;-73
2022/05/26 14:46:54;;;;;;;0.90;0.90;;;18.90;99.90;;;;;;4942120;28;20548;-72
2022/05/26 14:49:22;;;;;;;0.93;0.93;;;18.80;99.90;;;;;;4936700;29;20484;-73
2022/05/26 14:51:49;;;;;;;2.43;1.03;;;18.90;99.90;;;;;;4931959;28;20466;-73
2022/05/26 14:57:02;;;;;;;3.80;1.73;;;19.30;99.90;;;;;;4940830;29;20535;-70
2022/05/26 14:59:29;;;;;;;0.83;0.83;;;19.50;99.90;;;;;;4935523;29;20847;-73
2022/05/26 15:01:56;;;;;;;1.07;0.80;;;19.60;99.90;;;;;;4942028;28;20595;-72
2022/05/26 15:04:24;;;;;;;1.03;1.03;;;19.60;99.90;;;;;;4930778;29;20889;-72
2022/05/26 15:06:51;;;;;;;2.10;1.60;;;19.50;99.90;;;;;;4944100;28;20845;-73
2022/05/26 15:09:22;;;;;;;2.40;0.87;;;19.40;99.90;;;;;;4932559;29;20461;-70
2022/05/26 15:11:51;;;;;;;2.73;1.33;;;19.30;99.90;;;;;;4932924;28;20477;-73
2022/05/26 15:14:19;;;;;;;0.70;0.70;;;19.20;99.90;;;;;;4934709;29;20477;-72
2022/05/26 15:16:47;;;;;;;2.17;1.03;;;19.00;99.90;;;;;;4927975;29;20489;-72
2022/05/26 15:19:19;;;;;;;3.80;1.20;;;18.90;99.90;;;;;;4931824;29;20497;-72
2022/05/26 15:21:48;;;;;;;2.00;0.80;;;18.80;99.90;;;;;;4926960;29;20469;-72
2022/05/26 15:24:15;;;;;;;3.20;1.00;;;18.70;99.90;;;;;;4933952;29;20528;-72
2022/05/26 15:26:42;;;;;;;0.50;0.50;;;18.70;99.90;;;;;;4934012;29;20497;-73
2022/05/26 15:29:09;;;;;;;1.53;1.00;;;18.60;99.90;;;;;;4940481;29;20955;-72
2022/05/26 15:31:36;;;;;;;1.37;1.00;;;18.60;99.90;;;;;;4944740;29;20473;-72
2022/05/26 15:34:03;;;;;;;1.67;0.90;;;18.60;99.90;;;;;;4918916;28;20541;-71
2022/05/26 15:36:31;;;;;;;2.17;0.67;;;18.50;99.90;;;;;;4926839;29;20493;-71
2022/05/26 15:39:00;;;;;;;0.87;0.87;;;18.50;99.90;;;;;;4929653;29;20492;-72
2022/05/26 15:41:28;;;;;;;0.80;0.80;;;18.50;99.90;;;;;;4939272;29;20555;-72
2022/05/26 15:43:55;;;;;;;2.17;1.37;;;18.50;99.90;;;;;;4933806;29;20473;-71
2022/05/26 15:46:27;;;;;;;0.93;0.93;;;18.50;99.90;;;;;;4951153;28;20488;-71
2022/05/26 15:48:53;;;;;;;0.83;0.83;;;18.50;99.90;;;;;;4938835;29;20480;-71
2022/05/26 15:51:20;;;;;;;1.70;1.03;;;18.50;99.90;;;;;;4929350;29;20883;-71
2022/05/26 15:53:48;;;;;;;2.73;1.03;;;18.50;99.90;;;;;;4932173;29;20950;-71
2022/05/26 15:56:20;;;;;;;1.77;1.77;;;18.40;99.90;;;;;;4932386;29;20556;-72
2022/05/26 15:58:47;;;;;;;2.30;1.30;;;18.30;99.90;;;;;;4931457;29;20468;-70
2022/05/26 16:01:14;;;;;;;1.60;1.07;;;18.20;99.90;;;;;;4932771;29;20485;-71
2022/05/26 16:03:41;;;;;;;1.40;1.13;;;18.20;99.90;;;;;;4943225;29;20457;-72
2022/05/26 16:06:08;;;;;;;1.97;1.10;;;18.20;99.90;;;;;;4939005;28;20473;-72
2022/05/26 16:08:34;;;;;;;2.47;1.00;;;18.20;99.90;;;;;;4940738;28;20564;-71
2022/05/26 16:11:01;;;;;;;1.43;1.33;;;18.20;99.90;;;;;;4939138;28;20469;-72
2022/05/26 16:13:29;;;;;;;3.03;1.20;;;18.20;99.90;;;;;;4942816;29;20473;-71
2022/05/26 16:15:56;;;;;;;1.23;1.23;;;18.20;99.90;;;;;;4936277;28;20501;-71
2022/05/26 16:18:22;;;;;;;3.03;1.80;;;18.10;99.90;;;;;;4932579;29;20922;-72
2022/05/26 16:20:49;;;;;;;1.70;1.40;;;18.00;99.90;;;;;;4941901;28;20537;-72
2022/05/26 16:23:19;;;;;;;2.40;1.20;;;18.00;99.90;;;;;;4934843;29;20557;-72
2022/05/26 16:25:55;;;;;;;2.93;1.33;;;17.90;99.90;;;;;;4926974;29;20464;-71
2022/05/26 16:28:22;;;;;;;3.60;1.50;;;17.70;99.90;;;;;;4936998;23;20571;-70
2022/05/26 16:30:51;;;;;;;2.93;1.23;;;17.60;99.90;;;;;;4960990;28;20519;-66
2022/05/26 16:33:19;;;;;;;3.20;1.33;;;17.50;99.90;;;;;;4951962;28;20476;-66
2022/05/26 16:38:33;;;;;;;1.43;1.10;;;17.50;99.90;;;;;;4946264;28;20482;-68
2022/05/26 16:41:00;;;;;;;1.10;1.10;;;17.50;99.90;;;;;;4941786;29;20478;-69
2022/05/26 16:43:27;;;;;;;1.33;1.33;;;17.50;99.90;;;;;;4928975;29;20843;-68
2022/05/26 16:45:55;;;;;;;1.53;1.53;;;17.50;99.90;;;;;;4947452;28;20528;-67
2022/05/26 16:48:21;;;;;;;2.23;1.10;;;17.50;99.90;;;;;;4931448;28;20556;-67
2022/05/26 16:50:48;;;;;;;1.10;1.10;;;17.50;99.90;;;;;;4943990;28;20461;-67
2022/05/26 16:53:15;;;;;;;1.63;1.00;;;17.40;99.90;;;;;;4943424;28;20526;-68
2022/05/26 16:55:44;;;;;;;2.20;1.40;;;17.40;99.90;;;;;;4920665;29;20848;-67
2022/05/26 16:58:11;;;;;;;3.37;1.37;;;17.40;99.90;;;;;;4927906;29;20489;-69
2022/05/26 17:00:37;;;;;;;1.97;1.70;;;17.40;99.90;;;;;;4930905;29;20797;-68
2022/05/26 17:03:06;;;;;;;1.70;1.60;;;17.30;99.90;;;;;;4933564;28;20534;-67
2022/05/26 17:05:32;;;;;;;4.37;4.07;;;17.20;99.90;;;;;;4920794;29;20461;-69
2022/05/26 17:07:59;;;;;;;1.57;1.47;;;17.20;99.90;;;;;;4929888;29;20475;-68
2022/05/26 17:10:29;;;;;;;3.23;2.93;;;17.10;99.90;;;;;;4942313;29;20889;-68
2022/05/26 17:21:12;;;;;;;2.30;1.70;;;16.60;99.90;;;;;;4931882;29;20631;-68
2022/05/26 17:23:43;;;;;;;2.47;1.80;;;16.50;99.90;;;;;;4936775;29;20556;-69
2022/05/26 17:26:13;;;;;;;3.40;3.20;;;16.40;99.90;;;;;;4951708;28;20953;-68
2022/05/26 17:28:40;;;;;;;2.27;2.17;;;16.40;99.90;;;;;;4935861;28;20556;-68
2022/05/26 17:31:07;;;;;;;4.13;3.83;;;16.50;99.90;;;;;;4933872;29;20469;-68
2022/05/26 17:33:35;;;;;;;3.37;3.17;;;16.50;99.90;;;;;;4928380;29;20528;-68
2022/05/26 17:36:03;;;;;;;4.73;2.37;;;16.50;99.90;;;;;;4937492;29;20837;-68
2022/05/26 17:38:30;;;;;;;3.63;3.33;;;16.50;99.90;;;;;;4944239;28;21173;-68
2022/05/26 17:40:57;;;;;;;8.07;3.00;;;16.60;99.90;;;;;;4937254;28;20897;-68
2022/05/26 17:43:23;;;;;;;2.93;2.83;;;16.60;99.90;;;;;;4943313;28;20464;-67
2022/05/26 17:45:50;;;;;;;6.23;2.90;;;16.60;99.90;;;;;;4936130;28;20477;-69
2022/05/26 17:48:16;;;;;;;4.07;3.87;;;16.60;99.90;;;;;;4940469;28;20480;-69